sensor_id;sensor_type;location;lat;lon;timestamp;pressure;altitude;pressure_sealevel;temperature;humidity
37972;BME280;23794;48.234;8.344;2023-01-27T00:00:27;94269.59;;;-3.04;75.97
37972;BME280;23794;48.234;8.344;2023-01-27T00:02:54;94272.75;;;-3.02;76.52
37972;BME280;23794;48.234;8.344;2023-01-27T00:05:20;94274.34;;;-2.92;76.46
37972;BME280;23794;48.234;8.344;2023-01-27T00:07:47;94273.38;;;-2.96;76.36
37972;BME280;23794;48.234;8.344;2023-01-27T00:10:18;94272.00;;;-2.85;76.41
37972;BME280;23794;48.234;8.344;2023-01-27T00:12:46;94262.69;;;-2.79;75.64
37972;BME280;23794;48.234;8.344;2023-01-27T00:15:33;94263.94;;;-2.76;75.23
37972;BME280;23794;48.234;8.344;2023-01-27T00:18:00;94260.81;;;-2.69;75.38
37972;BME280;23794;48.234;8.344;2023-01-27T00:20:27;94267.25;;;-2.62;75.39
37972;BME280;23794;48.234;8.344;2023-01-27T00:23:22;94265.06;;;-2.68;75.60
37972;BME280;23794;48.234;8.344;2023-01-27T00:26:15;94262.69;;;-2.87;75.97
37972;BME280;23794;48.234;8.344;2023-01-27T00:28:43;94266.47;;;-2.88;75.79
37972;BME280;23794;48.234;8.344;2023-01-27T00:31:13;94272.44;;;-2.92;75.86
37972;BME280;23794;48.234;8.344;2023-01-27T00:33:58;94275.44;;;-2.84;75.82
37972;BME280;23794;48.234;8.344;2023-01-27T00:36:36;94271.50;;;-2.87;74.01
37972;BME280;23794;48.234;8.344;2023-01-27T00:39:04;94280.50;;;-3.00;74.46
37972;BME280;23794;48.234;8.344;2023-01-27T00:41:31;94272.88;;;-3.07;74.78
37972;BME280;23794;48.234;8.344;2023-01-27T00:43:59;94270.38;;;-3.03;75.06
37972;BME280;23794;48.234;8.344;2023-01-27T00:46:27;94270.09;;;-3.02;74.70
37972;BME280;23794;48.234;8.344;2023-01-27T00:48:53;94264.84;;;-3.07;75.04
37972;BME280;23794;48.234;8.344;2023-01-27T00:51:20;94273.53;;;-3.01;74.97
37972;BME280;23794;48.234;8.344;2023-01-27T00:53:47;94265.50;;;-3.01;75.48
37972;BME280;23794;48.234;8.344;2023-01-27T00:56:15;94264.84;;;-3.07;76.55
37972;BME280;23794;48.234;8.344;2023-01-27T00:58:42;94263.16;;;-2.94;76.37
37972;BME280;23794;48.234;8.344;2023-01-27T01:01:11;94259.50;;;-3.07;76.40
37972;BME280;23794;48.234;8.344;2023-01-27T01:03:38;94266.47;;;-2.88;76.15
37972;BME280;23794;48.234;8.344;2023-01-27T01:06:07;94272.00;;;-2.85;75.37
37972;BME280;23794;48.234;8.344;2023-01-27T01:08:36;94275.78;;;-2.77;75.18
37972;BME280;23794;48.234;8.344;2023-01-27T01:11:08;94270.28;;;-2.72;74.74
37972;BME280;23794;48.234;8.344;2023-01-27T01:13:36;94271.69;;;-2.74;74.47
37972;BME280;23794;48.234;8.344;2023-01-27T01:16:04;94261.75;;;-2.83;74.79
37972;BME280;23794;48.234;8.344;2023-01-27T01:18:32;94265.22;;;-2.82;75.32
37972;BME280;23794;48.234;8.344;2023-01-27T01:20:59;94265.38;;;-2.79;75.54
37972;BME280;23794;48.234;8.344;2023-01-27T01:23:27;94265.69;;;-2.80;74.42
37972;BME280;23794;48.234;8.344;2023-01-27T01:25:55;94269.00;;;-2.83;75.17
37972;BME280;23794;48.234;8.344;2023-01-27T01:28:22;94267.38;;;-3.11;74.93
37972;BME280;23794;48.234;8.344;2023-01-27T01:30:49;94258.41;;;-3.06;75.24
37972;BME280;23794;48.234;8.344;2023-01-27T01:33:18;94263.31;;;-2.99;75.58
37972;BME280;23794;48.234;8.344;2023-01-27T01:35:45;94256.19;;;-3.04;75.08
37972;BME280;23794;48.234;8.344;2023-01-27T01:38:12;94261.72;;;-3.00;75.09
37972;BME280;23794;48.234;8.344;2023-01-27T01:40:43;94252.09;;;-2.93;74.73
37972;BME280;23794;48.234;8.344;2023-01-27T01:43:18;94259.69;;;-2.95;74.69
37972;BME280;23794;48.234;8.344;2023-01-27T01:45:53;94255.44;;;-2.96;74.83
37972;BME280;23794;48.234;8.344;2023-01-27T01:48:42;94250.22;;;-2.92;75.01
37972;BME280;23794;48.234;8.344;2023-01-27T01:51:15;94253.53;;;-2.95;75.72
37972;BME280;23794;48.234;8.344;2023-01-27T01:54:02;94246.25;;;-3.03;75.88
37972;BME280;23794;48.234;8.344;2023-01-27T01:56:46;94244.22;;;-3.15;75.29
37972;BME280;23794;48.234;8.344;2023-01-27T01:59:18;94252.72;;;-3.13;75.40
37972;BME280;23794;48.234;8.344;2023-01-27T02:01:46;94245.31;;;-3.16;75.55
37972;BME280;23794;48.234;8.344;2023-01-27T02:04:17;94245.91;;;-3.19;75.89
37972;BME280;23794;48.234;8.344;2023-01-27T02:06:51;94240.50;;;-3.37;76.40
37972;BME280;23794;48.234;8.344;2023-01-27T02:09:20;94236.28;;;-3.29;76.67
37972;BME280;23794;48.234;8.344;2023-01-27T02:11:47;94230.91;;;-3.38;76.36
37972;BME280;23794;48.234;8.344;2023-01-27T02:14:16;94240.50;;;-3.37;76.68
37972;BME280;23794;48.234;8.344;2023-01-27T02:16:43;94242.75;;;-3.30;76.80
37972;BME280;23794;48.234;8.344;2023-01-27T02:19:21;94235.47;;;-3.39;76.62
37972;BME280;23794;48.234;8.344;2023-01-27T02:21:51;94233.56;;;-3.47;76.72
37972;BME280;23794;48.234;8.344;2023-01-27T02:24:26;94237.91;;;-3.60;77.14
37972;BME280;23794;48.234;8.344;2023-01-27T02:26:59;94236.56;;;-3.48;77.12
37972;BME280;23794;48.234;8.344;2023-01-27T02:29:26;94237.72;;;-3.32;76.79
37972;BME280;23794;48.234;8.344;2023-01-27T02:31:54;94239.41;;;-3.36;76.35
37972;BME280;23794;48.234;8.344;2023-01-27T02:34:25;94235.31;;;-3.42;76.47
37972;BME280;23794;48.234;8.344;2023-01-27T02:36:56;94232.63;;;-3.42;76.62
37972;BME280;23794;48.234;8.344;2023-01-27T02:39:25;94237.16;;;-3.60;77.22
37972;BME280;23794;48.234;8.344;2023-01-27T02:41:55;94237.47;;;-3.53;77.48
37972;BME280;23794;48.234;8.344;2023-01-27T02:44:24;94228.38;;;-3.43;77.70
37972;BME280;23794;48.234;8.344;2023-01-27T02:46:51;94236.59;;;-3.31;77.07
37972;BME280;23794;48.234;8.344;2023-01-27T02:49:17;94230.16;;;-3.21;76.23
37972;BME280;23794;48.234;8.344;2023-01-27T02:51:44;94225.09;;;-3.23;77.07
37972;BME280;23794;48.234;8.344;2023-01-27T02:54:10;94230.81;;;-3.15;76.23
37972;BME280;23794;48.234;8.344;2023-01-27T02:56:38;94228.25;;;-3.29;76.74
37972;BME280;23794;48.234;8.344;2023-01-27T02:59:05;94229.50;;;-3.27;77.41
37972;BME280;23794;48.234;8.344;2023-01-27T03:01:36;94222.25;;;-3.26;77.20
37972;BME280;23794;48.234;8.344;2023-01-27T03:04:03;94224.00;;;-3.21;76.51
37972;BME280;23794;48.234;8.344;2023-01-27T03:06:32;94227.16;;;-3.28;76.19
37972;BME280;23794;48.234;8.344;2023-01-27T03:08:59;94233.44;;;-3.33;76.65
37972;BME280;23794;48.234;8.344;2023-01-27T03:11:26;94234.97;;;-3.49;76.90
37972;BME280;23794;48.234;8.344;2023-01-27T03:14:11;94233.88;;;-3.48;77.46
37972;BME280;23794;48.234;8.344;2023-01-27T03:16:38;94233.69;;;-3.61;77.41
37972;BME280;23794;48.234;8.344;2023-01-27T03:19:23;94227.69;;;-3.66;77.51
37972;BME280;23794;48.234;8.344;2023-01-27T03:21:52;94234.53;;;-3.83;77.63
37972;BME280;23794;48.234;8.344;2023-01-27T03:24:20;94236.91;;;-3.81;78.17
37972;BME280;23794;48.234;8.344;2023-01-27T03:26:47;94230.19;;;-3.70;77.76
37972;BME280;23794;48.234;8.344;2023-01-27T03:29:16;94235.31;;;-3.82;78.00
37972;BME280;23794;48.234;8.344;2023-01-27T03:32:02;94232.94;;;-3.84;78.35
37972;BME280;23794;48.234;8.344;2023-01-27T03:34:29;94244.31;;;-3.78;78.82
37972;BME280;23794;48.234;8.344;2023-01-27T03:37:03;94241.81;;;-3.75;78.47
37972;BME280;23794;48.234;8.344;2023-01-27T03:39:49;94251.72;;;-3.75;78.19
37972;BME280;23794;48.234;8.344;2023-01-27T03:42:34;94233.59;;;-3.87;78.66
37972;BME280;23794;48.234;8.344;2023-01-27T03:45:20;94236.91;;;-3.81;79.12
37972;BME280;23794;48.234;8.344;2023-01-27T03:48:05;94247.16;;;-3.75;78.21
37972;BME280;23794;48.234;8.344;2023-01-27T03:50:31;94248.59;;;-3.77;78.30
37972;BME280;23794;48.234;8.344;2023-01-27T03:53:08;94243.06;;;-3.81;78.75
37972;BME280;23794;48.234;8.344;2023-01-27T03:55:36;94246.38;;;-3.75;78.25
37972;BME280;23794;48.234;8.344;2023-01-27T03:58:04;94248.13;;;-3.71;78.82
37972;BME280;23794;48.234;8.344;2023-01-27T04:00:50;94247.53;;;-3.59;78.50
37972;BME280;23794;48.234;8.344;2023-01-27T04:03:17;94253.72;;;-3.49;78.12
37972;BME280;23794;48.234;8.344;2023-01-27T04:06:11;94252.94;;;-3.50;78.22
37972;BME280;23794;48.234;8.344;2023-01-27T04:08:57;94248.03;;;-3.48;77.60
37972;BME280;23794;48.234;8.344;2023-01-27T04:11:23;94242.25;;;-3.41;77.53
37972;BME280;23794;48.234;8.344;2023-01-27T04:14:10;94257.66;;;-3.47;77.01
37972;BME280;23794;48.234;8.344;2023-01-27T04:16:37;94243.34;;;-3.42;77.50
37972;BME280;23794;48.234;8.344;2023-01-27T04:19:05;94241.75;;;-3.43;77.00
37972;BME280;23794;48.234;8.344;2023-01-27T04:21:32;94231.69;;;-3.46;76.80
37972;BME280;23794;48.234;8.344;2023-01-27T04:23:59;94241.16;;;-3.40;76.83
37972;BME280;23794;48.234;8.344;2023-01-27T04:26:27;94236.59;;;-3.31;76.80
37972;BME280;23794;48.234;8.344;2023-01-27T04:29:00;94237.84;;;-3.37;75.94
37972;BME280;23794;48.234;8.344;2023-01-27T04:31:27;94229.78;;;-3.55;76.55
37972;BME280;23794;48.234;8.344;2023-01-27T04:33:54;94234.81;;;-3.44;76.60
37972;BME280;23794;48.234;8.344;2023-01-27T04:36:21;94239.88;;;-3.43;76.92
37972;BME280;23794;48.234;8.344;2023-01-27T04:38:48;94231.97;;;-3.48;76.02
37972;BME280;23794;48.234;8.344;2023-01-27T04:41:14;94236.81;;;-3.59;76.00
37972;BME280;23794;48.234;8.344;2023-01-27T04:43:41;94255.22;;;-3.66;76.44
37972;BME280;23794;48.234;8.344;2023-01-27T04:46:07;94244.47;;;-3.83;77.27
37972;BME280;23794;48.234;8.344;2023-01-27T04:48:35;94259.47;;;-3.74;77.15
37972;BME280;23794;48.234;8.344;2023-01-27T04:51:01;94271.13;;;-3.69;77.27
37972;BME280;23794;48.234;8.344;2023-01-27T04:53:28;94269.84;;;-3.72;76.72
37972;BME280;23794;48.234;8.344;2023-01-27T04:56:04;94259.28;;;-3.77;77.35
37972;BME280;23794;48.234;8.344;2023-01-27T04:58:31;94272.03;;;-3.74;77.17
37972;BME280;23794;48.234;8.344;2023-01-27T05:00:57;94266.25;;;-3.67;76.71
37972;BME280;23794;48.234;8.344;2023-01-27T05:03:24;94276.47;;;-3.69;76.68
37972;BME280;23794;48.234;8.344;2023-01-27T05:05:50;94275.53;;;-3.74;77.30
37972;BME280;23794;48.234;8.344;2023-01-27T05:08:17;94270.38;;;-3.61;77.69
37972;BME280;23794;48.234;8.344;2023-01-27T05:10:44;94274.31;;;-3.59;76.64
37972;BME280;23794;48.234;8.344;2023-01-27T05:13:10;94274.78;;;-3.65;76.24
37972;BME280;23794;48.234;8.344;2023-01-27T05:15:37;94274.59;;;-3.69;76.49
37972;BME280;23794;48.234;8.344;2023-01-27T05:18:04;94283.38;;;-3.77;76.66
37972;BME280;23794;48.234;8.344;2023-01-27T05:20:30;94275.22;;;-3.72;77.35
37972;BME280;23794;48.234;8.344;2023-01-27T05:22:57;94272.72;;;-3.60;77.10
37972;BME280;23794;48.234;8.344;2023-01-27T05:25:43;94263.59;;;-3.67;76.57
37972;BME280;23794;48.234;8.344;2023-01-27T05:28:10;94263.59;;;-3.59;77.47
37972;BME280;23794;48.234;8.344;2023-01-27T05:30:37;94273.41;;;-3.45;76.76
37972;BME280;23794;48.234;8.344;2023-01-27T05:33:04;94278.47;;;-3.44;76.52
37972;BME280;23794;48.234;8.344;2023-01-27T05:37:59;94281.91;;;-3.61;76.72
37972;BME280;23794;48.234;8.344;2023-01-27T05:40:26;94283.03;;;-3.84;75.85
37972;BME280;23794;48.234;8.344;2023-01-27T05:42:52;94285.47;;;-3.97;76.71
37972;BME280;23794;48.234;8.344;2023-01-27T05:45:19;94276.53;;;-3.92;77.24
37972;BME280;23794;48.234;8.344;2023-01-27T05:47:49;94282.53;;;-3.87;77.25
37972;BME280;23794;48.234;8.344;2023-01-27T05:50:17;94278.56;;;-3.66;77.39
37972;BME280;23794;48.234;8.344;2023-01-27T05:52:44;94275.28;;;-3.55;76.53
37972;BME280;23794;48.234;8.344;2023-01-27T05:55:11;94273.56;;;-3.50;76.54
37972;BME280;23794;48.234;8.344;2023-01-27T05:57:38;94266.16;;;-3.53;76.55
37972;BME280;23794;48.234;8.344;2023-01-27T06:00:05;94275.47;;;-3.51;76.87
37972;BME280;23794;48.234;8.344;2023-01-27T06:02:33;94275.66;;;-3.39;76.48
37972;BME280;23794;48.234;8.344;2023-01-27T06:05:00;94271.28;;;-3.66;75.91
37972;BME280;23794;48.234;8.344;2023-01-27T06:07:26;94279.09;;;-3.87;76.45
37972;BME280;23794;48.234;8.344;2023-01-27T06:09:53;94282.41;;;-3.81;77.32
37972;BME280;23794;48.234;8.344;2023-01-27T06:12:19;94281.97;;;-3.75;77.12
37972;BME280;23794;48.234;8.344;2023-01-27T06:14:46;94295.06;;;-3.73;76.53
37972;BME280;23794;48.234;8.344;2023-01-27T06:17:13;94293.50;;;-3.97;76.76
37972;BME280;23794;48.234;8.344;2023-01-27T06:19:40;94300.88;;;-4.03;77.39
37972;BME280;23794;48.234;8.344;2023-01-27T06:22:06;94296.13;;;-4.06;78.03
37972;BME280;23794;48.234;8.344;2023-01-27T06:24:33;94296.84;;;-3.91;78.22
37972;BME280;23794;48.234;8.344;2023-01-27T06:27:00;94289.84;;;-3.78;77.30
37972;BME280;23794;48.234;8.344;2023-01-27T06:29:26;94291.41;;;-3.77;77.53
37972;BME280;23794;48.234;8.344;2023-01-27T06:31:53;94297.41;;;-3.72;77.25
37972;BME280;23794;48.234;8.344;2023-01-27T06:34:19;94303.56;;;-3.71;76.73
37972;BME280;23794;48.234;8.344;2023-01-27T06:36:46;94314.63;;;-3.95;76.63
37972;BME280;23794;48.234;8.344;2023-01-27T06:39:13;94313.28;;;-4.07;76.92
37972;BME280;23794;48.234;8.344;2023-01-27T06:41:42;94316.00;;;-4.21;77.34
37972;BME280;23794;48.234;8.344;2023-01-27T06:44:08;94324.31;;;-4.08;77.64
37972;BME280;23794;48.234;8.344;2023-01-27T06:46:35;94323.06;;;-4.02;77.17
37972;BME280;23794;48.234;8.344;2023-01-27T06:49:01;94323.38;;;-4.04;77.11
37972;BME280;23794;48.234;8.344;2023-01-27T06:51:28;94327.69;;;-4.16;76.84
37972;BME280;23794;48.234;8.344;2023-01-27T06:53:54;94323.56;;;-4.23;77.33
37972;BME280;23794;48.234;8.344;2023-01-27T06:56:21;94331.34;;;-4.35;77.89
37972;BME280;23794;48.234;8.344;2023-01-27T06:58:48;94335.41;;;-4.38;78.09
37972;BME280;23794;48.234;8.344;2023-01-27T07:01:14;94332.06;;;-4.21;77.76
37972;BME280;23794;48.234;8.344;2023-01-27T07:03:41;94339.91;;;-4.24;77.76
37972;BME280;23794;48.234;8.344;2023-01-27T07:06:12;94340.47;;;-4.36;77.57
37972;BME280;23794;48.234;8.344;2023-01-27T07:08:41;94338.38;;;-4.39;78.74
37972;BME280;23794;48.234;8.344;2023-01-27T07:11:11;94342.94;;;-4.17;78.87
37972;BME280;23794;48.234;8.344;2023-01-27T07:13:37;94341.22;;;-4.22;78.24
37972;BME280;23794;48.234;8.344;2023-01-27T07:16:04;94342.03;;;-4.35;78.02
37972;BME280;23794;48.234;8.344;2023-01-27T07:18:31;94347.69;;;-4.37;79.09
37972;BME280;23794;48.234;8.344;2023-01-27T07:20:57;94351.53;;;-4.29;78.51
37972;BME280;23794;48.234;8.344;2023-01-27T07:23:24;94351.47;;;-4.15;78.82
37972;BME280;23794;48.234;8.344;2023-01-27T07:25:51;94355.69;;;-4.00;77.93
37972;BME280;23794;48.234;8.344;2023-01-27T07:28:17;94359.50;;;-4.15;77.70
37972;BME280;23794;48.234;8.344;2023-01-27T07:30:44;94353.28;;;-4.24;78.15
37972;BME280;23794;48.234;8.344;2023-01-27T07:33:12;94356.28;;;-4.26;78.21
37972;BME280;23794;48.234;8.344;2023-01-27T07:35:40;94358.00;;;-4.07;77.69
37972;BME280;23794;48.234;8.344;2023-01-27T07:38:08;94356.28;;;-4.26;77.80
37972;BME280;23794;48.234;8.344;2023-01-27T07:40:35;94356.59;;;-4.27;78.05
37972;BME280;23794;48.234;8.344;2023-01-27T07:43:01;94360.22;;;-4.23;78.46
37972;BME280;23794;48.234;8.344;2023-01-27T07:45:28;94355.78;;;-4.05;78.82
37972;BME280;23794;48.234;8.344;2023-01-27T07:48:08;94363.75;;;-3.91;78.32
37972;BME280;23794;48.234;8.344;2023-01-27T07:50:35;94362.97;;;-3.92;77.77
37972;BME280;23794;48.234;8.344;2023-01-27T07:53:03;94360.66;;;-3.84;77.48
37972;BME280;23794;48.234;8.344;2023-01-27T07:55:31;94369.28;;;-4.10;77.66
37972;BME280;23794;48.234;8.344;2023-01-27T07:57:58;94372.16;;;-4.07;78.01
37972;BME280;23794;48.234;8.344;2023-01-27T08:00:25;94375.47;;;-3.87;78.29
37972;BME280;23794;48.234;8.344;2023-01-27T08:02:54;94385.47;;;-3.70;78.15
37972;BME280;23794;48.234;8.344;2023-01-27T08:05:21;94385.09;;;-3.55;77.49
37972;BME280;23794;48.234;8.344;2023-01-27T08:07:49;94387.63;;;-3.49;76.52
37972;BME280;23794;48.234;8.344;2023-01-27T08:10:16;94385.00;;;-3.72;76.81
37972;BME280;23794;48.234;8.344;2023-01-27T08:12:44;94394.13;;;-3.73;76.92
37972;BME280;23794;48.234;8.344;2023-01-27T08:15:11;94392.97;;;-3.81;77.11
37972;BME280;23794;48.234;8.344;2023-01-27T08:17:38;94389.75;;;-3.69;77.63
37972;BME280;23794;48.234;8.344;2023-01-27T08:20:05;94388.56;;;-3.54;77.75
37972;BME280;23794;48.234;8.344;2023-01-27T08:22:31;94389.81;;;-3.51;76.56
37972;BME280;23794;48.234;8.344;2023-01-27T08:25:00;94407.19;;;-3.72;75.81
37972;BME280;23794;48.234;8.344;2023-01-27T08:27:26;94406.19;;;-3.84;76.54
37972;BME280;23794;48.234;8.344;2023-01-27T08:29:53;94406.34;;;-4.04;76.61
37972;BME280;23794;48.234;8.344;2023-01-27T08:32:19;94406.91;;;-4.29;77.94
37972;BME280;23794;48.234;8.344;2023-01-27T08:34:46;94410.47;;;-4.20;78.54
37972;BME280;23794;48.234;8.344;2023-01-27T08:37:13;94403.94;;;-4.05;77.68
37972;BME280;23794;48.234;8.344;2023-01-27T08:39:40;94414.84;;;-4.02;77.97
37972;BME280;23794;48.234;8.344;2023-01-27T08:42:06;94414.56;;;-4.00;77.83
37972;BME280;23794;48.234;8.344;2023-01-27T08:44:33;94411.56;;;-3.98;78.07
37972;BME280;23794;48.234;8.344;2023-01-27T08:47:00;94415.66;;;-4.01;77.29
37972;BME280;23794;48.234;8.344;2023-01-27T08:49:26;94417.47;;;-3.88;77.28
37972;BME280;23794;48.234;8.344;2023-01-27T08:51:53;94417.34;;;-3.82;76.72
37972;BME280;23794;48.234;8.344;2023-01-27T08:54:19;94421.75;;;-3.64;76.71
37972;BME280;23794;48.234;8.344;2023-01-27T08:56:46;94416.94;;;-3.53;77.15
37972;BME280;23794;48.234;8.344;2023-01-27T08:59:12;94413.19;;;-3.43;76.17
37972;BME280;23794;48.234;8.344;2023-01-27T09:01:39;94411.44;;;-3.48;75.80
37972;BME280;23794;48.234;8.344;2023-01-27T09:04:07;94415.66;;;-3.56;75.46
37972;BME280;23794;48.234;8.344;2023-01-27T09:06:33;94419.31;;;-3.74;76.11
37972;BME280;23794;48.234;8.344;2023-01-27T09:09:00;94426.78;;;-3.85;75.79
37972;BME280;23794;48.234;8.344;2023-01-27T09:11:41;94424.91;;;-3.84;75.94
37972;BME280;23794;48.234;8.344;2023-01-27T09:14:10;94431.41;;;-3.77;75.30
37972;BME280;23794;48.234;8.344;2023-01-27T09:16:37;94433.19;;;-3.72;75.95
37972;BME280;23794;48.234;8.344;2023-01-27T09:19:04;94425.16;;;-3.72;76.47
37972;BME280;23794;48.234;8.344;2023-01-27T09:21:30;94420.22;;;-3.79;75.36
37972;BME280;23794;48.234;8.344;2023-01-27T09:23:57;94430.91;;;-4.02;76.70
37972;BME280;23794;48.234;8.344;2023-01-27T09:26:24;94430.47;;;-3.81;75.92
37972;BME280;23794;48.234;8.344;2023-01-27T09:28:50;94425.81;;;-3.66;76.07
37972;BME280;23794;48.234;8.344;2023-01-27T09:31:17;94427.03;;;-3.50;76.39
37972;BME280;23794;48.234;8.344;2023-01-27T09:33:44;94424.97;;;-3.53;75.44
37972;BME280;23794;48.234;8.344;2023-01-27T09:36:12;94424.81;;;-3.48;75.38
37972;BME280;23794;48.234;8.344;2023-01-27T09:38:47;94439.03;;;-3.47;74.63
37972;BME280;23794;48.234;8.344;2023-01-27T09:44:25;94431.41;;;-3.54;74.61
37972;BME280;23794;48.234;8.344;2023-01-27T09:55:23;94429.19;;;-3.61;73.18
37972;BME280;23794;48.234;8.344;2023-01-27T10:00:40;94433.69;;;-3.70;74.11
37972;BME280;23794;48.234;8.344;2023-01-27T10:06:11;94439.09;;;-3.61;74.04
37972;BME280;23794;48.234;8.344;2023-01-27T10:08:57;94438.84;;;-3.51;74.21
37972;BME280;23794;48.234;8.344;2023-01-27T10:11:33;94431.03;;;-3.39;73.21
37972;BME280;23794;48.234;8.344;2023-01-27T10:14:22;94424.72;;;-3.43;73.31
37972;BME280;23794;48.234;8.344;2023-01-27T10:27:46;94418.81;;;-2.91;72.40
37972;BME280;23794;48.234;8.344;2023-01-27T10:30:35;94414.59;;;-2.83;72.33
37972;BME280;23794;48.234;8.344;2023-01-27T10:33:18;94421.56;;;-2.64;72.15
37972;BME280;23794;48.234;8.344;2023-01-27T10:35:53;94418.94;;;-2.55;71.61
37972;BME280;23794;48.234;8.344;2023-01-27T10:41:04;94407.47;;;-2.87;71.46
37972;BME280;23794;48.234;8.344;2023-01-27T10:43:59;94421.59;;;-3.04;71.45
37972;BME280;23794;48.234;8.344;2023-01-27T10:46:52;94424.88;;;-3.08;71.88
37972;BME280;23794;48.234;8.344;2023-01-27T10:49:26;94417.19;;;-3.00;71.51
37972;BME280;23794;48.234;8.344;2023-01-27T10:52:11;94417.88;;;-2.86;72.02
37972;BME280;23794;48.234;8.344;2023-01-27T10:54:42;94433.78;;;-2.89;71.20
37972;BME280;23794;48.234;8.344;2023-01-27T10:57:16;94441.41;;;-3.14;71.37
37972;BME280;23794;48.234;8.344;2023-01-27T10:59:52;94445.34;;;-3.43;72.13
37972;BME280;23794;48.234;8.344;2023-01-27T11:02:48;94451.25;;;-3.55;72.81
37972;BME280;23794;48.234;8.344;2023-01-27T11:05:28;94456.00;;;-3.52;73.23
37972;BME280;23794;48.234;8.344;2023-01-27T11:08:04;94451.31;;;-3.46;73.16
37972;BME280;23794;48.234;8.344;2023-01-27T11:10:35;94457.50;;;-3.60;72.77
37972;BME280;23794;48.234;8.344;2023-01-27T11:13:08;94452.53;;;-3.52;73.59
37972;BME280;23794;48.234;8.344;2023-01-27T11:15:37;94451.44;;;-3.51;73.14
37972;BME280;23794;48.234;8.344;2023-01-27T11:18:21;94446.50;;;-3.35;73.26
37972;BME280;23794;48.234;8.344;2023-01-27T11:20:52;94446.38;;;-3.30;72.66
37972;BME280;23794;48.234;8.344;2023-01-27T11:23:25;94443.63;;;-3.16;73.08
37972;BME280;23794;48.234;8.344;2023-01-27T11:26:05;94443.06;;;-2.96;72.66
37972;BME280;23794;48.234;8.344;2023-01-27T11:29:07;94448.47;;;-2.87;72.28
37972;BME280;23794;48.234;8.344;2023-01-27T11:31:53;94443.97;;;-2.69;72.15
37972;BME280;23794;48.234;8.344;2023-01-27T11:34:32;94447.69;;;-2.87;71.05
37972;BME280;23794;48.234;8.344;2023-01-27T11:37:14;94441.75;;;-3.07;72.15
37972;BME280;23794;48.234;8.344;2023-01-27T11:39:41;94434.75;;;-3.26;71.84
37972;BME280;23794;48.234;8.344;2023-01-27T11:42:09;94440.97;;;-3.39;72.64
37972;BME280;23794;48.234;8.344;2023-01-27T11:44:37;94428.91;;;-3.50;72.78
37972;BME280;23794;48.234;8.344;2023-01-27T11:47:07;94425.09;;;-3.58;73.22
37972;BME280;23794;48.234;8.344;2023-01-27T11:49:42;94418.03;;;-3.54;73.17
37972;BME280;23794;48.234;8.344;2023-01-27T11:52:16;94412.69;;;-3.45;73.62
37972;BME280;23794;48.234;8.344;2023-01-27T11:57:29;94415.53;;;-3.50;73.04
37972;BME280;23794;48.234;8.344;2023-01-27T11:59:59;94414.56;;;-3.55;73.77
37972;BME280;23794;48.234;8.344;2023-01-27T12:02:41;94408.84;;;-3.30;73.82
37972;BME280;23794;48.234;8.344;2023-01-27T12:05:14;94393.00;;;-3.18;73.25
37972;BME280;23794;48.234;8.344;2023-01-27T12:07:54;94394.81;;;-2.96;73.29
37972;BME280;23794;48.234;8.344;2023-01-27T12:10:32;94401.09;;;-2.60;72.60
37972;BME280;23794;48.234;8.344;2023-01-27T12:13:19;94415.88;;;-2.71;71.32
37972;BME280;23794;48.234;8.344;2023-01-27T12:15:59;94415.91;;;-2.63;71.46
37972;BME280;23794;48.234;8.344;2023-01-27T12:18:30;94406.00;;;-2.45;70.71
37972;BME280;23794;48.234;8.344;2023-01-27T12:21:00;94398.56;;;-2.56;71.16
37972;BME280;23794;48.234;8.344;2023-01-27T12:23:30;94391.81;;;-2.36;71.44
37972;BME280;23794;48.234;8.344;2023-01-27T12:26:09;94403.19;;;-2.13;70.77
37972;BME280;23794;48.234;8.344;2023-01-27T12:28:42;94394.91;;;-2.69;71.00
37972;BME280;23794;48.234;8.344;2023-01-27T12:31:21;94395.69;;;-2.69;71.63
37972;BME280;23794;48.234;8.344;2023-01-27T12:33:57;94385.59;;;-2.72;72.55
37972;BME280;23794;48.234;8.344;2023-01-27T12:36:25;94371.09;;;-2.62;73.24
37972;BME280;23794;48.234;8.344;2023-01-27T12:38:59;94375.69;;;-2.45;72.88
37972;BME280;23794;48.234;8.344;2023-01-27T12:41:28;94377.44;;;-2.32;72.01
37972;BME280;23794;48.234;8.344;2023-01-27T12:43:58;94371.09;;;-2.62;72.13
37972;BME280;23794;48.234;8.344;2023-01-27T12:46:33;94362.75;;;-2.52;72.03
37972;BME280;23794;48.234;8.344;2023-01-27T12:49:10;94374.44;;;-2.56;71.73
37972;BME280;23794;48.234;8.344;2023-01-27T12:51:42;94370.94;;;-2.57;72.80
37972;BME280;23794;48.234;8.344;2023-01-27T12:54:22;94371.53;;;-2.69;73.02
37972;BME280;23794;48.234;8.344;2023-01-27T12:56:50;94363.66;;;-2.65;73.23
37972;BME280;23794;48.234;8.344;2023-01-27T12:59:20;94372.84;;;-2.57;72.56
37972;BME280;23794;48.234;8.344;2023-01-27T13:02:20;94389.47;;;-2.87;73.45
37972;BME280;23794;48.234;8.344;2023-01-27T13:04:54;94389.69;;;-2.74;73.79
37972;BME280;23794;48.234;8.344;2023-01-27T13:07:43;94384.19;;;-2.69;73.15
37972;BME280;23794;48.234;8.344;2023-01-27T13:10:22;94398.91;;;-2.98;73.35
37972;BME280;23794;48.234;8.344;2023-01-27T13:12:51;94402.31;;;-3.15;74.12
37972;BME280;23794;48.234;8.344;2023-01-27T13:15:21;94408.13;;;-3.22;75.41
37972;BME280;23794;48.234;8.344;2023-01-27T13:17:49;94398.81;;;-3.25;74.64
37972;BME280;23794;48.234;8.344;2023-01-27T13:20:29;94398.66;;;-3.19;75.29
37972;BME280;23794;48.234;8.344;2023-01-27T13:23:09;94403.78;;;-3.00;75.04
37972;BME280;23794;48.234;8.344;2023-01-27T13:25:51;94401.94;;;-2.91;74.26
37972;BME280;23794;48.234;8.344;2023-01-27T13:28:26;94394.81;;;-2.96;74.38
37972;BME280;23794;48.234;8.344;2023-01-27T13:30:58;94395.44;;;-2.99;74.71
37972;BME280;23794;48.234;8.344;2023-01-27T13:33:42;94394.09;;;-3.19;74.63
37972;BME280;23794;48.234;8.344;2023-01-27T13:36:27;94394.84;;;-3.27;75.55
37972;BME280;23794;48.234;8.344;2023-01-27T13:44:31;94397.25;;;-2.77;75.44
37972;BME280;23794;48.234;8.344;2023-01-27T13:47:09;94393.94;;;-2.73;74.97
37972;BME280;23794;48.234;8.344;2023-01-27T13:49:44;94402.16;;;-2.70;75.16
37972;BME280;23794;48.234;8.344;2023-01-27T13:52:13;94394.75;;;-2.64;74.52
37972;BME280;23794;48.234;8.344;2023-01-27T13:54:40;94399.34;;;-2.56;74.31
37972;BME280;23794;48.234;8.344;2023-01-27T13:57:35;94408.50;;;-2.57;73.52
37972;BME280;23794;48.234;8.344;2023-01-27T14:00:24;94415.00;;;-2.98;73.72
37972;BME280;23794;48.234;8.344;2023-01-27T14:03:18;94420.44;;;-3.12;74.97